createdAt,value
2022-08-14T00:01:23.912Z,22.30
2022-08-14T00:03:57.556Z,22.27
2022-08-14T00:06:30.487Z,22.25
2022-08-14T00:09:04.158Z,22.29
2022-08-14T00:11:36.904Z,22.28
2022-08-14T00:14:17.224Z,22.33
2022-08-14T00:16:52.084Z,22.29
2022-08-14T00:19:28.922Z,22.26
2022-08-14T00:22:04.700Z,22.27
2022-08-14T00:24:38.438Z,22.24
2022-08-14T00:27:11.965Z,22.28
2022-08-14T00:29:45.670Z,22.20
2022-08-14T00:32:55.745Z,22.12
2022-08-14T00:35:15.288Z,22.15
2022-08-14T00:37:48.540Z,22.12
2022-08-14T00:40:32.983Z,22.04
2022-08-14T00:43:07.921Z,22.03
2022-08-14T00:45:41.379Z,22.04
2022-08-14T00:48:14.106Z,22.03
2022-08-14T00:51:09.604Z,22.10
2022-08-14T00:53:42.980Z,22.11
2022-08-14T00:56:18.883Z,22.22
2022-08-14T00:58:52.496Z,22.08
2022-08-14T01:01:25.820Z,22.21
2022-08-14T01:03:59.910Z,22.21
2022-08-14T01:06:34.424Z,22.15
2022-08-14T01:09:07.365Z,22.00
2022-08-14T01:11:41.642Z,22.02
2022-08-14T01:14:27.533Z,21.97
2022-08-14T01:17:01.757Z,21.98
2022-08-14T01:19:55.336Z,22.13
2022-08-14T01:22:29.553Z,21.74
2022-08-14T01:25:04.174Z,21.57
2022-08-14T01:27:53.829Z,21.58
2022-08-14T01:30:36.602Z,21.62
2022-08-14T01:33:13.044Z,21.73
2022-08-14T01:36:03.910Z,21.64
2022-08-14T01:38:44.135Z,21.30
2022-08-14T01:41:23.180Z,21.35
2022-08-14T01:44:08.167Z,21.12
2022-08-14T01:47:21.437Z,21.38
2022-08-14T01:49:59.409Z,21.61
2022-08-14T01:52:59.087Z,21.77
2022-08-14T01:55:32.200Z,21.61
2022-08-14T01:58:19.906Z,21.62
2022-08-14T02:00:55.732Z,21.51
2022-08-14T02:03:31.486Z,21.72
2022-08-14T02:06:33.193Z,21.81
2022-08-14T02:08:58.289Z,21.61
2022-08-14T02:11:32.065Z,21.72
2022-08-14T02:14:08.669Z,21.62
2022-08-14T02:16:54.260Z,21.83
2022-08-14T02:19:31.762Z,21.76
2022-08-14T02:22:06.416Z,21.90
2022-08-14T02:24:45.231Z,21.98
2022-08-14T02:28:22.589Z,21.78
2022-08-14T02:30:15.271Z,21.78
2022-08-14T02:32:50.617Z,21.82
2022-08-14T02:35:26.551Z,21.90
2022-08-14T02:38:05.818Z,21.53
2022-08-14T02:40:45.507Z,21.48
2022-08-14T02:43:18.543Z,21.53
2022-08-14T02:45:56.545Z,21.65
2022-08-14T02:49:02.759Z,21.68
2022-08-14T02:51:30.235Z,21.65
2022-08-14T02:54:04.750Z,21.70
2022-08-14T02:57:15.670Z,21.77
2022-08-14T02:59:33.617Z,21.83
2022-08-14T03:02:08.746Z,21.87
2022-08-14T03:05:01.410Z,21.77
2022-08-14T03:07:34.645Z,21.82
2022-08-14T03:10:27.852Z,21.72
2022-08-14T03:13:04.746Z,21.70
2022-08-14T03:15:44.546Z,21.53
2022-08-14T03:18:18.622Z,21.42
2022-08-14T03:20:51.491Z,21.48
2022-08-14T03:23:25.097Z,21.57
2022-08-14T03:25:58.471Z,21.53
2022-08-14T03:28:33.717Z,21.61
2022-08-14T03:31:08.443Z,21.61
2022-08-14T03:33:51.770Z,21.57
2022-08-14T03:37:37.938Z,21.62
2022-08-14T03:39:24.068Z,21.68
2022-08-14T03:42:00.016Z,21.67
2022-08-14T03:45:19.644Z,21.50
2022-08-14T03:47:33.662Z,21.50
2022-08-14T03:50:27.972Z,21.51
2022-08-14T03:53:04.830Z,21.58
2022-08-14T03:55:39.077Z,21.43
2022-08-14T03:58:23.732Z,21.64
2022-08-14T04:01:06.749Z,21.73
2022-08-14T04:03:40.009Z,21.68
2022-08-14T04:06:13.128Z,21.74
2022-08-14T04:08:54.435Z,21.84
2022-08-14T04:11:31.052Z,21.79
2022-08-14T04:14:05.681Z,21.80
2022-08-14T04:16:41.900Z,21.71
2022-08-14T04:19:20.655Z,21.65
2022-08-14T04:22:02.207Z,21.66
2022-08-14T04:24:39.362Z,21.72
2022-08-14T04:27:13.404Z,21.83
2022-08-14T04:29:50.459Z,21.83
2022-08-14T04:33:01.130Z,21.85
2022-08-14T04:35:23.631Z,21.68
2022-08-14T04:38:36.683Z,21.74
2022-08-14T04:41:30.227Z,21.54
2022-08-14T04:44:05.396Z,21.63
2022-08-14T04:46:56.697Z,21.51
2022-08-14T04:49:30.607Z,21.66
2022-08-14T04:52:18.950Z,21.25
2022-08-14T04:54:51.918Z,21.29
2022-08-14T04:57:25.518Z,21.48
2022-08-14T04:59:58.847Z,21.51
2022-08-14T05:02:39.104Z,21.74
2022-08-14T05:05:14.654Z,21.80
2022-08-14T05:08:01.211Z,21.35
2022-08-14T05:10:44.088Z,21.47
2022-08-14T05:13:17.869Z,21.21
2022-08-14T05:15:54.508Z,21.44
2022-08-14T05:19:17.170Z,21.41
2022-08-14T05:21:59.560Z,21.76
2022-08-14T05:24:18.858Z,21.55
2022-08-14T05:26:52.311Z,21.66
2022-08-14T05:29:29.596Z,21.78
2022-08-14T05:32:08.531Z,21.96
2022-08-14T05:34:41.976Z,21.98
2022-08-14T05:37:19.171Z,22.14
2022-08-14T05:39:53.476Z,22.33
2022-08-14T05:42:29.306Z,22.05
2022-08-14T05:45:11.303Z,22.05
2022-08-14T05:47:46.579Z,21.75
2022-08-14T05:50:24.380Z,22.00
2022-08-14T05:52:58.935Z,22.25
2022-08-14T05:55:32.468Z,22.45
2022-08-14T05:58:09.847Z,22.56
2022-08-14T06:00:46.389Z,22.61
2022-08-14T06:03:22.525Z,22.92
2022-08-14T06:05:57.419Z,23.04
2022-08-14T06:08:41.141Z,23.06
2022-08-14T06:11:20.233Z,23.20
2022-08-14T06:14:01.030Z,23.31
2022-08-14T06:16:36.439Z,23.27
2022-08-14T06:19:11.457Z,23.35
2022-08-14T06:21:58.397Z,23.31
2022-08-14T06:24:35.708Z,23.47
2022-08-14T06:27:09.808Z,23.69
2022-08-14T06:29:43.795Z,23.80
2022-08-14T06:32:38.231Z,23.75
2022-08-14T06:35:13.270Z,23.81
2022-08-14T06:37:58.504Z,24.03
2022-08-14T06:40:42.817Z,23.78
2022-08-14T06:43:17.742Z,24.00
2022-08-14T06:45:54.295Z,24.05
2022-08-14T06:48:27.993Z,24.13
2022-08-14T06:51:01.356Z,24.26
2022-08-14T06:53:34.161Z,24.32
2022-08-14T06:56:07.458Z,24.40
2022-08-14T06:58:41.268Z,24.56
2022-08-14T07:01:34.413Z,24.68
2022-08-14T07:04:27.258Z,24.83
2022-08-14T07:07:00.386Z,24.84
2022-08-14T07:09:43.829Z,24.88
2022-08-14T07:12:56.310Z,25.01
2022-08-14T07:15:16.834Z,24.95
2022-08-14T07:17:53.947Z,25.06
2022-08-14T07:20:30.581Z,25.26
2022-08-14T07:23:11.241Z,25.30
2022-08-14T07:25:55.639Z,25.37
2022-08-14T07:28:42.111Z,25.41
2022-08-14T07:31:16.647Z,25.56
2022-08-14T07:33:50.932Z,25.67
2022-08-14T07:36:27.465Z,25.72
2022-08-14T07:39:12.336Z,25.78
2022-08-14T07:41:48.365Z,25.76
2022-08-14T07:44:32.456Z,25.82
2022-08-14T07:47:08.965Z,25.94
2022-08-14T07:50:00.820Z,25.93
2022-08-14T07:52:35.015Z,25.87
2022-08-14T07:55:10.957Z,25.99
2022-08-14T07:57:45.898Z,26.21
2022-08-14T08:00:30.915Z,26.24
2022-08-14T08:03:10.332Z,26.28
2022-08-14T08:05:46.136Z,26.35
2022-08-14T08:08:27.055Z,26.44
2022-08-14T08:46:05.086Z,27.66
2022-08-14T09:29:33.303Z,29.54
2022-08-14T09:32:57.837Z,29.54
2022-08-14T09:35:30.312Z,28.94
2022-08-14T09:38:27.611Z,28.87
2022-08-14T09:41:15.735Z,28.97
2022-08-14T09:44:14.087Z,29.07
2022-08-14T09:46:56.051Z,29.17
2022-08-14T09:49:40.625Z,29.06
2022-08-14T09:52:33.370Z,29.29
2022-08-14T09:55:18.735Z,29.68
2022-08-14T09:58:19.136Z,29.84
2022-08-14T10:00:59.536Z,29.63
2022-08-14T10:03:35.738Z,29.68
2022-08-14T10:06:12.665Z,29.95
2022-08-14T10:09:02.042Z,30.17
2022-08-14T10:11:38.019Z,30.41
2022-08-14T10:14:35.458Z,30.60
2022-08-14T10:17:09.158Z,30.85
2022-08-14T10:19:49.259Z,30.85
2022-08-14T10:23:10.977Z,30.87
2022-08-14T10:25:23.235Z,30.55
2022-08-14T10:27:59.610Z,30.33
2022-08-14T10:30:37.669Z,30.62
2022-08-14T10:33:10.556Z,30.51
2022-08-14T10:35:48.116Z,30.35
2022-08-14T10:38:34.654Z,30.13
2022-08-14T10:41:16.331Z,30.40
2022-08-14T10:44:21.096Z,30.80
2022-08-14T10:47:40.917Z,30.81
2022-08-14T10:50:01.432Z,30.63
2022-08-14T10:52:35.854Z,30.27
2022-08-14T10:55:09.189Z,30.54
2022-08-14T10:57:54.305Z,30.54
2022-08-14T11:00:35.615Z,30.83
2022-08-14T11:03:19.727Z,30.74
2022-08-14T11:06:01.372Z,31.00
2022-08-14T11:08:34.537Z,31.35
2022-08-14T11:11:07.771Z,31.55
2022-08-14T11:13:46.471Z,31.79
2022-08-14T11:16:21.664Z,31.98
2022-08-14T11:18:59.531Z,32.00
2022-08-14T11:21:34.298Z,32.05
2022-08-14T11:24:55.444Z,31.53
2022-08-14T11:27:08.551Z,31.09
2022-08-14T11:29:43.777Z,30.56
2022-08-14T11:32:20.169Z,30.55
2022-08-14T11:34:53.626Z,30.42
2022-08-14T11:37:36.583Z,30.24
2022-08-14T11:40:24.338Z,30.58
2022-08-14T11:43:08.058Z,31.06
2022-08-14T11:45:45.126Z,31.58
2022-08-14T11:49:01.815Z,32.05
2022-08-14T11:51:30.357Z,31.78
2022-08-14T11:54:06.310Z,31.89
2022-08-14T11:56:41.771Z,31.28
2022-08-14T11:59:18.539Z,31.22
2022-08-14T12:01:51.684Z,31.72
2022-08-14T12:04:32.210Z,31.85
2022-08-14T12:07:07.901Z,31.69
2022-08-14T12:09:43.061Z,31.86
2022-08-14T12:12:36.249Z,31.52
2022-08-14T12:15:11.310Z,31.33
2022-08-14T12:17:50.504Z,31.36
2022-08-14T12:20:32.843Z,31.73
2022-08-14T12:23:08.343Z,32.30
2022-08-14T12:25:42.114Z,32.61
2022-08-14T12:28:26.704Z,32.54
2022-08-14T12:31:00.969Z,32.65
2022-08-14T12:33:34.588Z,32.87
2022-08-14T12:36:20.893Z,32.67
2022-08-14T12:38:55.592Z,32.57
2022-08-14T12:41:34.480Z,32.72
2022-08-14T12:44:10.091Z,33.13
2022-08-14T12:46:46.768Z,33.31
2022-08-14T12:49:23.102Z,33.05
2022-08-14T12:52:00.923Z,33.17
2022-08-14T12:54:34.304Z,33.55
2022-08-14T12:57:19.330Z,33.68
2022-08-14T12:59:53.956Z,33.78
2022-08-14T13:02:27.637Z,33.96
2022-08-14T13:05:00.605Z,33.52
2022-08-14T13:07:33.784Z,32.83
2022-08-14T13:10:46.033Z,32.45
2022-08-14T13:13:15.658Z,31.78
2022-08-14T13:15:56.218Z,31.74
2022-08-14T13:18:32.807Z,31.50
2022-08-14T13:21:13.925Z,31.28
2022-08-14T13:23:49.861Z,31.10
2022-08-14T13:26:28.261Z,31.36
2022-08-14T13:29:03.594Z,31.59
2022-08-14T13:31:39.492Z,31.40
2022-08-14T13:34:13.851Z,31.65
2022-08-14T13:36:54.915Z,31.80
2022-08-14T13:39:36.690Z,31.54
2022-08-14T13:42:14.372Z,31.37
2022-08-14T13:44:53.707Z,31.25
2022-08-14T13:47:33.246Z,31.31
2022-08-14T13:50:10.716Z,31.20
2022-08-14T13:52:56.596Z,31.47
2022-08-14T13:55:31.084Z,31.52
2022-08-14T13:58:05.163Z,31.41
2022-08-14T14:00:51.835Z,31.17
2022-08-14T14:03:30.437Z,31.28
2022-08-14T14:06:07.133Z,31.27
2022-08-14T14:08:48.968Z,31.09
2022-08-14T14:11:24.192Z,31.32
2022-08-14T14:14:00.406Z,31.08
2022-08-14T14:16:33.650Z,30.90
2022-08-14T14:19:09.328Z,30.86
2022-08-14T14:21:44.525Z,31.10
2022-08-14T14:24:18.063Z,31.20
2022-08-14T14:26:54.640Z,31.23
2022-08-14T14:29:33.520Z,31.23
2022-08-14T14:32:11.523Z,31.41
2022-08-14T14:34:55.379Z,31.74
2022-08-14T14:37:29.298Z,31.94
2022-08-14T14:40:53.138Z,31.93
2022-08-14T14:42:58.679Z,31.42
2022-08-14T14:45:33.981Z,31.18
2022-08-14T14:48:10.048Z,31.18
2022-08-14T14:50:44.014Z,31.20
2022-08-14T14:53:17.239Z,31.15
2022-08-14T14:56:46.943Z,31.17
2022-08-14T14:58:46.654Z,31.32
2022-08-14T15:01:24.086Z,31.19
2022-08-14T15:03:59.064Z,31.05
2022-08-14T15:06:37.306Z,31.24
2022-08-14T15:09:20.968Z,31.51
2022-08-14T15:11:57.827Z,31.54
2022-08-14T15:14:55.384Z,31.38
2022-08-14T15:17:32.256Z,30.91
2022-08-14T15:20:17.314Z,30.98
2022-08-14T15:22:53.228Z,30.90
2022-08-14T15:25:31.891Z,30.90
2022-08-14T15:28:06.395Z,31.03
2022-08-14T15:30:40.311Z,31.00
2022-08-14T15:33:14.344Z,30.96
2022-08-14T15:35:48.727Z,30.97
2022-08-14T15:38:21.776Z,31.11
2022-08-14T15:41:04.664Z,31.11
2022-08-14T15:43:41.547Z,30.85
2022-08-14T15:46:41.150Z,30.81
2022-08-14T15:49:13.475Z,30.90
2022-08-14T15:51:46.329Z,31.12
2022-08-14T15:54:21.843Z,31.30
2022-08-14T15:57:08.679Z,31.42
2022-08-14T16:00:00.500Z,31.46
2022-08-14T16:02:33.841Z,31.34
2022-08-14T16:05:08.157Z,31.32
2022-08-14T16:07:43.168Z,31.25
2022-08-14T16:10:28.891Z,31.24
2022-08-14T16:13:02.276Z,31.33
2022-08-14T16:15:35.995Z,31.25
2022-08-14T16:18:19.143Z,31.04
2022-08-14T16:20:59.064Z,31.11
2022-08-14T16:23:35.960Z,31.05
2022-08-14T16:26:29.395Z,30.93
2022-08-14T16:29:17.994Z,30.97
2022-08-14T16:31:51.420Z,31.00
2022-08-14T16:34:45.820Z,30.95
2022-08-14T16:37:20.439Z,30.81
2022-08-14T16:39:56.515Z,30.76
2022-08-14T16:43:02.969Z,30.68
2022-08-14T16:45:27.771Z,30.52
2022-08-14T16:48:01.100Z,30.56
2022-08-14T16:50:40.528Z,30.58
2022-08-14T16:53:17.992Z,30.49
2022-08-14T16:56:22.979Z,30.36
2022-08-14T16:59:15.276Z,30.21
2022-08-14T17:02:01.417Z,30.13
2022-08-14T17:04:41.040Z,30.05
2022-08-14T17:07:14.638Z,30.00
2022-08-14T17:09:49.171Z,29.77
2022-08-14T17:12:28.441Z,29.60
2022-08-14T17:15:14.964Z,29.52
2022-08-14T17:17:49.976Z,29.48
2022-08-14T17:20:53.453Z,29.23
2022-08-14T17:23:30.005Z,29.11
2022-08-14T17:26:04.810Z,28.89
2022-08-14T17:31:58.042Z,28.67
2022-08-14T17:34:48.752Z,28.55
2022-08-14T17:37:24.505Z,28.63
2022-08-14T17:40:29.650Z,28.56
2022-08-14T17:43:02.836Z,28.47
2022-08-14T17:45:41.292Z,28.44
2022-08-14T17:49:15.868Z,28.23
2022-08-14T17:51:24.185Z,28.11
2022-08-14T17:54:05.020Z,28.06
2022-08-14T17:56:41.423Z,27.99
2022-08-14T17:59:17.582Z,27.96
2022-08-14T18:01:51.119Z,27.95
2022-08-14T18:04:28.589Z,27.83
2022-08-14T18:07:16.807Z,27.67
2022-08-14T18:10:52.376Z,27.51
2022-08-14T18:12:54.374Z,27.37
2022-08-14T18:15:37.033Z,27.16
2022-08-14T18:18:13.335Z,27.06
2022-08-14T18:21:40.370Z,26.98
2022-08-14T18:23:48.122Z,26.79
2022-08-14T18:26:36.160Z,26.59
2022-08-14T18:29:14.848Z,26.55
2022-08-14T18:31:48.536Z,26.61
2022-08-14T18:34:31.715Z,26.54
2022-08-14T18:37:19.858Z,26.59
2022-08-14T18:40:03.249Z,26.66
2022-08-14T18:42:37.840Z,26.66
2022-08-14T18:45:18.987Z,26.61
2022-08-14T18:48:16.523Z,26.60
2022-08-14T18:50:55.496Z,26.77
2022-08-14T18:53:34.178Z,26.43
2022-08-14T18:56:10.028Z,26.38
2022-08-14T18:58:57.074Z,26.45
2022-08-14T19:01:33.355Z,26.12
2022-08-14T19:04:08.412Z,26.11
2022-08-14T19:06:45.791Z,26.05
2022-08-14T19:09:52.208Z,25.71
2022-08-14T19:12:53.071Z,25.76
2022-08-14T19:15:35.747Z,25.63
2022-08-14T19:18:30.002Z,25.46
2022-08-14T19:21:13.240Z,25.34
2022-08-14T19:24:30.088Z,25.41
2022-08-14T19:27:24.865Z,25.47
2022-08-14T19:30:19.946Z,25.55
2022-08-14T19:32:55.982Z,25.32
2022-08-14T19:35:55.037Z,25.31
2022-08-14T19:38:44.854Z,25.22
2022-08-14T19:41:29.356Z,25.40
2022-08-14T19:44:11.796Z,25.36
2022-08-14T19:47:01.745Z,25.34
2022-08-14T19:50:08.168Z,25.37
2022-08-14T19:52:40.176Z,25.36
2022-08-14T19:55:19.467Z,25.30
2022-08-14T19:57:58.680Z,25.25
2022-08-14T20:00:33.090Z,25.22
2022-08-14T20:03:10.997Z,25.24
2022-08-14T20:05:46.488Z,25.24
2022-08-14T20:09:05.914Z,25.17
2022-08-14T20:11:58.612Z,25.08
2022-08-14T20:14:29.567Z,24.78
2022-08-14T20:17:06.576Z,24.74
2022-08-14T20:19:41.684Z,24.78
2022-08-14T20:22:35.194Z,24.64
2022-08-14T20:25:26.603Z,24.62
2022-08-14T20:28:30.256Z,24.72
2022-08-14T20:31:18.754Z,24.65
2022-08-14T20:34:19.348Z,24.52
2022-08-14T20:37:22.362Z,24.53
2022-08-14T20:39:55.979Z,24.62
2022-08-14T20:42:53.562Z,24.40
2022-08-14T20:45:29.039Z,24.38
2022-08-14T20:48:09.048Z,24.38
2022-08-14T20:50:45.292Z,24.23
2022-08-14T20:53:26.355Z,24.15
2022-08-14T20:56:04.688Z,24.14
2022-08-14T20:58:54.754Z,24.18
2022-08-14T21:01:36.704Z,24.01
2022-08-14T21:04:22.176Z,24.06
2022-08-14T21:07:33.823Z,23.93
2022-08-14T21:10:06.338Z,24.01
2022-08-14T21:13:26.613Z,24.08
2022-08-14T21:15:56.701Z,23.85
2022-08-14T21:18:34.443Z,23.85
2022-08-14T21:21:09.894Z,23.98
2022-08-14T21:23:54.464Z,23.83
2022-08-14T21:26:33.269Z,23.79
2022-08-14T21:29:24.160Z,23.74
2022-08-14T21:31:58.413Z,23.65
2022-08-14T21:34:32.583Z,23.58
2022-08-14T21:37:09.789Z,23.60
2022-08-14T21:39:43.188Z,23.59
2022-08-14T21:42:17.468Z,23.57
2022-08-14T21:44:53.411Z,23.61
2022-08-14T21:47:28.395Z,23.66
2022-08-14T21:51:00.223Z,23.65
2022-08-14T21:53:03.490Z,23.71
2022-08-14T21:55:37.780Z,23.81
2022-08-14T21:58:53.182Z,23.83
2022-08-14T22:01:04.265Z,23.78
2022-08-14T22:03:47.513Z,23.73
2022-08-14T22:06:28.818Z,23.70
2022-08-14T22:09:02.553Z,23.75
2022-08-14T22:11:37.671Z,23.75
2022-08-14T22:14:25.339Z,23.35
2022-08-14T22:17:02.051Z,23.18
2022-08-14T22:19:54.568Z,23.21
2022-08-14T22:22:29.595Z,23.09
2022-08-14T22:25:03.160Z,22.93
2022-08-14T22:27:38.106Z,22.96
2022-08-14T22:30:29.479Z,23.06
2022-08-14T22:33:04.803Z,22.98
2022-08-14T22:35:38.325Z,22.95
2022-08-14T22:38:36.100Z,23.05
2022-08-14T22:41:25.562Z,23.14
2022-08-14T22:44:06.568Z,23.39
2022-08-14T22:46:43.421Z,22.97
2022-08-14T22:50:28.573Z,22.69
2022-08-14T22:52:31.792Z,22.78
2022-08-14T22:55:06.169Z,22.84
2022-08-14T22:57:43.357Z,22.93
2022-08-14T23:00:25.369Z,22.92
2022-08-14T23:03:10.186Z,22.93
2022-08-14T23:05:52.717Z,23.01
2022-08-14T23:09:00.128Z,22.89
2022-08-14T23:11:21.351Z,22.81
2022-08-14T23:13:54.909Z,22.86
2022-08-14T23:16:28.211Z,22.82
2022-08-14T23:19:01.985Z,22.83
2022-08-14T23:21:34.738Z,22.69
2022-08-14T23:24:09.431Z,22.65
2022-08-14T23:26:53.852Z,22.54
2022-08-14T23:29:27.341Z,22.56
2022-08-14T23:32:15.603Z,22.67
2022-08-14T23:34:54.024Z,22.71
2022-08-14T23:37:27.598Z,22.77
2022-08-14T23:40:02.713Z,22.76
2022-08-14T23:42:50.363Z,22.67
2022-08-14T23:45:37.108Z,22.76
2022-08-14T23:48:12.358Z,22.78
2022-08-14T23:50:46.629Z,22.81
2022-08-14T23:53:51.329Z,22.85
2022-08-14T23:56:32.157Z,22.91
2022-08-14T23:59:05.283Z,22.91
